createdAt,value
2018-10-11T00:00:12.010Z,6.5
2018-10-11T00:00:41.958Z,7.7
2018-10-11T00:01:11.676Z,9.6
2018-10-11T00:01:41.251Z,5.7
2018-10-11T00:02:10.975Z,5.6
2018-10-11T00:02:40.653Z,6
2018-10-11T00:03:10.294Z,6
2018-10-11T00:03:39.969Z,5
2018-10-11T00:04:09.637Z,7
2018-10-11T00:04:39.346Z,4.2
2018-10-11T00:05:09.031Z,6.4
2018-10-11T00:05:38.904Z,5.6
2018-10-11T00:06:08.632Z,5.8
2018-10-11T00:06:38.472Z,7.3
2018-10-11T00:07:07.963Z,6.8
2018-10-11T00:07:37.723Z,7.5
2018-10-11T00:08:07.244Z,6.3
2018-10-11T00:08:37.112Z,6.5
2018-10-11T00:09:06.799Z,5.4
2018-10-11T00:09:38.248Z,8.4
2018-10-11T00:10:07.863Z,6.1
2018-10-11T00:10:37.664Z,5.9
2018-10-11T00:11:07.594Z,4.3
2018-10-11T00:11:37.305Z,5.9
2018-10-11T00:12:07.296Z,6.2
2018-10-11T00:12:37.024Z,4.7
2018-10-11T00:13:06.906Z,6.8
2018-10-11T00:13:36.839Z,5.9
2018-10-11T00:14:06.352Z,7.3
2018-10-11T00:14:35.965Z,5.8
2018-10-11T00:15:05.476Z,5.8
2018-10-11T00:15:35.377Z,6.4
2018-10-11T00:16:04.864Z,7.1
2018-10-11T00:16:34.660Z,6.5
2018-10-11T00:17:06.915Z,6.4
2018-10-11T00:17:37.336Z,6.5
2018-10-11T00:18:09.519Z,6.1
2018-10-11T00:18:43.562Z,6.6
2018-10-11T00:19:14.875Z,5.9
2018-10-11T00:19:47.872Z,8.3
2018-10-11T00:20:18.723Z,6.8
2018-10-11T00:20:59.493Z,6.6
2018-10-11T00:21:29.833Z,5.7
2018-10-11T00:22:02.575Z,7.4
2018-10-11T00:22:32.901Z,5.4
2018-10-11T00:23:03.666Z,6.6
2018-10-11T00:23:33.285Z,6.3
2018-10-11T00:24:03.079Z,6.1
2018-10-11T00:24:32.930Z,6.7
2018-10-11T00:25:03.107Z,7.1
2018-10-11T00:25:32.614Z,4.8
2018-10-11T00:26:02.349Z,7.2
2018-10-11T00:26:32.429Z,6.9
2018-10-11T00:27:01.956Z,5.6
2018-10-11T00:27:31.991Z,6.6
2018-10-11T00:28:02.698Z,6
2018-10-11T00:28:32.244Z,8
2018-10-11T00:29:02.023Z,6.9
2018-10-11T00:29:31.648Z,5.9
2018-10-11T00:30:01.518Z,5.2
2018-10-11T00:30:31.517Z,6.8
2018-10-11T00:31:01.227Z,7.9
2018-10-11T00:31:31.249Z,7.4
2018-10-11T00:32:00.762Z,8.1
2018-10-11T00:32:30.428Z,6.1
2018-10-11T00:32:59.972Z,5.2
2018-10-11T00:33:29.680Z,5.6
2018-10-11T00:33:59.964Z,5.5
2018-10-11T00:34:29.488Z,5.3
2018-10-11T00:34:59.093Z,5.4
2018-10-11T00:35:28.826Z,6.6
2018-10-11T00:35:58.422Z,6.7
2018-10-11T00:36:28.495Z,8
2018-10-11T00:36:58.071Z,6.1
2018-10-11T00:37:27.873Z,6.9
2018-10-11T00:37:57.477Z,6
2018-10-11T00:38:27.893Z,7.9
2018-10-11T00:38:57.494Z,5.4
2018-10-11T00:39:27.172Z,7
2018-10-11T00:39:57.124Z,5.7
2018-10-11T00:40:26.701Z,6.6
2018-10-11T00:40:56.424Z,4.9
2018-10-11T00:41:25.950Z,5.9
2018-10-11T00:41:55.803Z,6.8
2018-10-11T00:42:25.358Z,8.2
2018-10-11T00:42:55.543Z,6.3
2018-10-11T00:43:25.494Z,5.1
2018-10-11T00:43:55.413Z,7.1
2018-10-11T00:44:25.173Z,7.4
2018-10-11T00:44:54.705Z,6.6
2018-10-11T00:45:24.215Z,8.5
2018-10-11T00:45:53.825Z,7.8
2018-10-11T00:46:23.701Z,7.1
2018-10-11T00:46:53.230Z,6.3
2018-10-11T00:47:22.964Z,6.3
2018-10-11T00:47:53.852Z,6.4
2018-10-11T00:48:23.480Z,7.8
2018-10-11T00:48:53.067Z,6.6
2018-10-11T00:49:22.886Z,7.9
2018-10-11T00:49:52.469Z,6
2018-10-11T00:50:22.287Z,6.7
2018-10-11T00:50:51.818Z,5.6
2018-10-11T00:51:21.292Z,7.7
2018-10-11T00:51:50.775Z,8.1
2018-10-11T00:52:20.272Z,8.6
2018-10-11T00:52:49.807Z,7.1
2018-10-11T00:53:19.287Z,6.4
2018-10-11T00:53:48.772Z,6.4
2018-10-11T00:54:18.263Z,6.7
2018-10-11T00:54:47.983Z,4.5
2018-10-11T00:55:17.429Z,5.2
2018-10-11T00:55:46.948Z,6.7
2018-10-11T00:56:16.424Z,7.2
2018-10-11T00:56:45.920Z,7
2018-10-11T00:57:15.410Z,4.6
2018-10-11T00:57:44.930Z,7.3
2018-10-11T00:58:14.511Z,7.2
2018-10-11T00:58:44.013Z,7.7
2018-10-11T00:59:13.544Z,5.8
2018-10-11T00:59:43.028Z,5.3
2018-10-11T01:00:12.574Z,6.4
2018-10-11T01:00:42.075Z,6.1
2018-10-11T01:01:11.704Z,5.4
2018-10-11T01:01:41.348Z,6.2
2018-10-11T01:02:10.940Z,7.2
2018-10-11T01:02:40.430Z,6.6
2018-10-11T01:03:09.976Z,7.8
2018-10-11T01:03:39.483Z,7.1
2018-10-11T01:04:09.094Z,8.1
2018-10-11T01:04:38.602Z,6.1
2018-10-11T01:05:08.173Z,6.6
2018-10-11T01:05:37.685Z,8.6
2018-10-11T01:06:07.379Z,5.9
2018-10-11T01:06:36.843Z,7.9
2018-10-11T01:07:06.347Z,6.1
2018-10-11T01:07:35.913Z,5.9
2018-10-11T01:08:06.420Z,8.8
2018-10-11T01:08:35.978Z,6.8
2018-10-11T01:09:05.541Z,7.1
2018-10-11T01:09:35.102Z,6.2
2018-10-11T01:10:04.775Z,6.1
2018-10-11T01:10:34.231Z,6.7
2018-10-11T01:11:03.770Z,5.8
2018-10-11T01:11:33.370Z,6.4
2018-10-11T01:12:02.885Z,6.9
2018-10-11T01:12:32.404Z,6.2
2018-10-11T01:13:01.943Z,6.2
2018-10-11T01:13:31.526Z,5.4
2018-10-11T01:14:01.020Z,7.2
2018-10-11T01:14:30.533Z,6.7
2018-10-11T01:15:00.062Z,6.3
2018-10-11T01:15:29.654Z,7.6
2018-10-11T01:15:59.143Z,7.4
2018-10-11T01:16:28.674Z,6.4
2018-10-11T01:16:58.135Z,7.1
2018-10-11T01:17:26.620Z,5.4
2018-10-11T01:17:56.107Z,6.3
2018-10-11T01:18:25.602Z,6.4
2018-10-11T01:18:55.165Z,6.8
2018-10-11T01:19:25.671Z,6.2
2018-10-11T01:19:55.162Z,7.4
2018-10-11T01:20:24.667Z,6.2
2018-10-11T01:20:54.169Z,5.9
2018-10-11T01:21:23.713Z,7.6
2018-10-11T01:21:54.210Z,5.1
2018-10-11T01:22:23.731Z,6.3
2018-10-11T01:22:53.257Z,7.4
2018-10-11T01:23:23.752Z,5.6
2018-10-11T01:23:53.416Z,7.6
2018-10-11T01:24:22.843Z,7.2
2018-10-11T01:24:52.344Z,6.9
2018-10-11T01:25:21.839Z,5.9
2018-10-11T01:25:51.334Z,5.3
2018-10-11T01:26:20.819Z,6.1
2018-10-11T01:26:50.310Z,7.5
2018-10-11T01:27:19.823Z,5.7
2018-10-11T01:27:49.330Z,7.2
2018-10-11T01:28:18.838Z,6.8
2018-10-11T01:28:48.392Z,5.9
2018-10-11T01:29:17.885Z,8.8
2018-10-11T01:29:47.537Z,6.2
2018-10-11T01:30:16.877Z,5.6
2018-10-11T01:30:46.376Z,6
2018-10-11T01:31:15.900Z,5.6
2018-10-11T01:31:45.397Z,6.9
2018-10-11T01:32:14.910Z,5.7
2018-10-11T01:32:44.411Z,5.6
2018-10-11T01:33:14.911Z,6.2
2018-10-11T01:33:44.435Z,6.5
2018-10-11T01:34:13.978Z,6.8
2018-10-11T01:34:43.477Z,7.3
2018-10-11T01:35:12.986Z,7.4
2018-10-11T01:35:42.482Z,6.7
2018-10-11T01:36:11.978Z,5.8
2018-10-11T01:36:41.462Z,9.4
2018-10-11T01:37:10.960Z,5.6
2018-10-11T01:37:40.458Z,7
2018-10-11T01:38:09.950Z,7.9
2018-10-11T01:38:39.463Z,6
2018-10-11T01:39:08.976Z,7.6
2018-10-11T01:39:38.561Z,5.8
2018-10-11T01:40:08.078Z,5.5
2018-10-11T01:40:37.596Z,5.4
2018-10-11T01:41:07.096Z,6.5
2018-10-11T01:41:36.584Z,5.6
2018-10-11T01:42:06.080Z,6.6
2018-10-11T01:42:35.590Z,6.9
2018-10-11T01:43:05.110Z,4.3
2018-10-11T01:43:34.625Z,6.3
2018-10-11T01:44:04.124Z,4.8
2018-10-11T01:44:33.660Z,7.6
2018-10-11T01:45:03.172Z,7.4
2018-10-11T01:45:32.667Z,5.5
2018-10-11T01:46:02.199Z,5.8
2018-10-11T01:46:31.701Z,6.9
2018-10-11T01:47:01.193Z,5.1
2018-10-11T01:47:30.687Z,5.5
2018-10-11T01:48:00.228Z,6.5
2018-10-11T01:48:29.696Z,7.1
2018-10-11T01:49:00.182Z,5
2018-10-11T01:49:29.727Z,6.5
2018-10-11T01:49:59.224Z,7.1
2018-10-11T01:50:28.713Z,7.1
2018-10-11T01:50:58.242Z,6.7
2018-10-11T01:51:27.832Z,6.4
2018-10-11T01:51:57.352Z,6.7
2018-10-11T01:52:26.852Z,7.9
2018-10-11T01:52:56.421Z,7
2018-10-11T01:53:25.926Z,9.8
2018-10-11T01:53:55.429Z,8.1
2018-10-11T01:54:24.928Z,5.6
2018-10-11T01:54:54.475Z,7.3
2018-10-11T01:55:24.951Z,5.8
2018-10-11T01:55:54.486Z,6.6
2018-10-11T01:56:23.982Z,6
2018-10-11T01:56:53.668Z,6.6
2018-10-11T01:57:23.113Z,6.3
2018-10-11T01:57:52.634Z,6.2
2018-10-11T01:58:22.142Z,7.7
2018-10-11T01:58:51.646Z,6.6
2018-10-11T01:59:21.151Z,7.2
2018-10-11T01:59:50.687Z,6.2
2018-10-11T02:00:20.179Z,7.1
2018-10-11T02:00:49.674Z,7.2
2018-10-11T02:01:19.161Z,6.7
2018-10-11T02:01:48.651Z,6.9
2018-10-11T02:02:18.146Z,6.5
2018-10-11T02:02:48.634Z,8.4
2018-10-11T02:03:18.122Z,10.5
2018-10-11T02:03:47.613Z,9.5
2018-10-11T02:04:17.107Z,7.4
2018-10-11T02:04:46.596Z,8.4
2018-10-11T02:05:16.186Z,6.3
2018-10-11T02:05:45.684Z,6.7
2018-10-11T02:06:15.181Z,7.2
2018-10-11T02:06:44.664Z,9.8
2018-10-11T02:07:14.192Z,7.9
2018-10-11T02:07:43.676Z,6.9
2018-10-11T02:08:13.170Z,7.9
2018-10-11T02:08:42.657Z,7.9
2018-10-11T02:09:12.148Z,7.7
2018-10-11T02:09:41.677Z,7
2018-10-11T02:10:11.748Z,6.9
2018-10-11T02:10:41.240Z,7.8
2018-10-11T02:11:11.771Z,5.4
2018-10-11T02:11:41.311Z,8.6
2018-10-11T02:12:10.757Z,5.9
2018-10-11T02:12:40.245Z,6.6
2018-10-11T02:13:09.739Z,5.9
2018-10-11T02:13:39.236Z,6.5
2018-10-11T02:14:08.729Z,6.1
2018-10-11T02:14:38.243Z,6.3
2018-10-11T02:15:07.789Z,5.8
2018-10-11T02:15:37.339Z,5.8
2018-10-11T02:16:06.841Z,6.4
2018-10-11T02:16:36.365Z,6.5
2018-10-11T02:17:05.856Z,4.8
2018-10-11T02:17:35.361Z,4.9
2018-10-11T02:18:04.855Z,7
2018-10-11T02:18:34.395Z,9.8
2018-10-11T02:19:03.886Z,8.2
2018-10-11T02:19:33.367Z,7.8
2018-10-11T02:20:02.858Z,7.7
2018-10-11T02:20:32.400Z,6
2018-10-11T02:21:02.880Z,7.1
2018-10-11T02:21:32.385Z,8.1
2018-10-11T02:22:01.882Z,5.5
2018-10-11T02:22:31.395Z,7
2018-10-11T02:23:00.893Z,7.2
2018-10-11T02:23:30.431Z,6.6
2018-10-11T02:23:59.929Z,7.5
2018-10-11T02:24:29.428Z,5.1
2018-10-11T02:24:58.962Z,6.8
2018-10-11T02:25:28.454Z,6.5
2018-10-11T02:25:58.005Z,6.1
2018-10-11T02:26:27.506Z,7.8
2018-10-11T02:26:57.009Z,5.6
2018-10-11T02:27:26.504Z,6.1
2018-10-11T02:27:55.993Z,6.3
2018-10-11T02:28:26.480Z,5.3
2018-10-11T02:28:55.981Z,5.7
2018-10-11T02:29:25.574Z,5
2018-10-11T02:29:55.005Z,6.7
2018-10-11T02:30:24.497Z,6.8
2018-10-11T02:30:54.043Z,7.1
2018-10-11T02:31:23.533Z,6.7
2018-10-11T02:31:53.043Z,10
2018-10-11T02:32:22.530Z,7.5
2018-10-11T02:32:52.017Z,7.3
2018-10-11T02:33:21.509Z,5
2018-10-11T02:33:51.008Z,7.5
2018-10-11T02:34:20.502Z,7.1
2018-10-11T02:34:50.019Z,5.1
2018-10-11T02:35:19.533Z,8.3
2018-10-11T02:35:49.028Z,6.1
2018-10-11T02:36:18.582Z,6.5
2018-10-11T02:36:48.081Z,6.3
2018-10-11T02:37:17.587Z,6.8
2018-10-11T02:37:47.120Z,6.9
2018-10-11T02:38:16.593Z,7.8
2018-10-11T02:38:46.085Z,6.1
2018-10-11T02:39:15.593Z,9.6
2018-10-11T02:39:45.077Z,7.9
2018-10-11T02:40:14.579Z,7.7
2018-10-11T02:40:44.081Z,7.4
2018-10-11T02:41:13.638Z,8.6
2018-10-11T02:41:43.130Z,7.7
2018-10-11T02:42:12.651Z,7.6
2018-10-11T02:42:42.150Z,8
2018-10-11T02:43:11.719Z,6.2
2018-10-11T02:43:41.219Z,6.1
2018-10-11T02:44:10.730Z,7.4
2018-10-11T02:44:40.231Z,5.6
2018-10-11T02:45:09.823Z,6.3
2018-10-11T02:45:39.318Z,6.6
2018-10-11T02:46:09.807Z,8.3
2018-10-11T02:46:39.360Z,5.3
2018-10-11T02:47:08.857Z,7.8
2018-10-11T02:47:38.364Z,6
2018-10-11T02:48:07.851Z,7.9
2018-10-11T02:48:37.348Z,6.9
2018-10-11T02:49:06.834Z,6.6
2018-10-11T02:49:36.325Z,6.1
2018-10-11T02:50:05.881Z,6.4
2018-10-11T02:50:35.370Z,5.6
2018-10-11T02:51:04.872Z,7.5
2018-10-11T02:51:34.414Z,7.1
2018-10-11T02:52:03.916Z,6.2
2018-10-11T02:52:34.421Z,6.8
2018-10-11T02:53:03.911Z,7.5
2018-10-11T02:53:33.420Z,6.2
2018-10-11T02:54:02.946Z,6.9
2018-10-11T02:54:32.439Z,6.9
2018-10-11T02:55:01.963Z,7.2
2018-10-11T02:55:32.430Z,6.1
2018-10-11T02:56:01.960Z,5.3
2018-10-11T02:56:31.455Z,6.4
2018-10-11T02:57:01.041Z,7.2
2018-10-11T02:57:30.561Z,7.8
2018-10-11T02:58:00.051Z,8.8
2018-10-11T02:58:29.538Z,7.2
2018-10-11T02:58:59.031Z,6.6
2018-10-11T02:59:28.519Z,7.2
2018-10-11T02:59:58.008Z,7.8
2018-10-11T03:00:27.507Z,6.3
2018-10-11T03:00:57.637Z,7.5
2018-10-11T03:01:27.620Z,5.7
2018-10-11T03:01:59.538Z,4.6
2018-10-11T03:02:29.171Z,8.4
2018-10-11T03:02:58.664Z,6.4
2018-10-11T03:03:28.160Z,6.6
2018-10-11T03:03:57.668Z,5.3
2018-10-11T03:04:27.159Z,7.5
2018-10-11T03:04:56.662Z,5.3
2018-10-11T03:05:26.157Z,8.1
2018-10-11T03:05:55.671Z,6.1
2018-10-11T03:06:26.164Z,6.4
2018-10-11T03:06:55.730Z,8.1
2018-10-11T03:07:25.219Z,8.9
2018-10-11T03:07:54.712Z,8.9
2018-10-11T03:08:24.201Z,6.5
2018-10-11T03:08:53.691Z,6.7
2018-10-11T03:09:23.231Z,7.6
2018-10-11T03:09:52.687Z,6
2018-10-11T03:10:22.223Z,6.3
2018-10-11T03:10:51.713Z,7
2018-10-11T03:11:21.206Z,8
2018-10-11T03:11:50.689Z,7.4
2018-10-11T03:12:20.230Z,6.4
2018-10-11T03:12:49.736Z,7.6
2018-10-11T03:13:19.222Z,7.4
2018-10-11T03:13:48.720Z,7
2018-10-11T03:14:18.231Z,7.2
2018-10-11T03:14:47.726Z,6.3
2018-10-11T03:15:17.268Z,8.6
2018-10-11T03:15:46.756Z,6.2
2018-10-11T03:16:16.260Z,7
2018-10-11T03:16:45.755Z,7.7
2018-10-11T03:17:15.290Z,10.3
2018-10-11T03:17:44.817Z,7.6
2018-10-11T03:18:14.311Z,6.8
2018-10-11T03:18:43.792Z,9.3
2018-10-11T03:19:13.287Z,6.1
2018-10-11T03:19:42.796Z,7.3
2018-10-11T03:20:12.287Z,7.9
2018-10-11T03:20:41.849Z,5.8
2018-10-11T03:21:11.985Z,6.6
2018-10-11T03:21:41.497Z,6.8
2018-10-11T03:22:11.001Z,6.6
2018-10-11T03:22:40.537Z,7.3
2018-10-11T03:23:10.047Z,6.7
2018-10-11T03:23:39.535Z,6.7
2018-10-11T03:24:09.027Z,8.1
2018-10-11T03:24:38.518Z,7.8
2018-10-11T03:25:08.012Z,7.1
2018-10-11T03:25:37.505Z,7.3
2018-10-11T03:26:07.001Z,6.4
2018-10-11T03:26:36.490Z,7.2
2018-10-11T03:27:06.020Z,6.4
2018-10-11T03:27:35.577Z,8.7
2018-10-11T03:28:05.080Z,6
2018-10-11T03:28:34.574Z,8.4
2018-10-11T03:29:04.067Z,7
2018-10-11T03:29:33.570Z,9.3
2018-10-11T03:30:03.117Z,7.4
2018-10-11T03:30:32.650Z,6.6
2018-10-11T03:31:02.158Z,8.7
2018-10-11T03:31:31.655Z,6.8
2018-10-11T03:32:01.166Z,6.8
2018-10-11T03:32:30.661Z,7.5
2018-10-11T03:33:01.212Z,7
2018-10-11T03:33:30.710Z,8.2
2018-10-11T03:34:00.214Z,5.9
2018-10-11T03:34:29.712Z,8.8
2018-10-11T03:34:59.200Z,7.8
2018-10-11T03:35:29.749Z,6.1
2018-10-11T03:35:59.203Z,7.2
2018-10-11T03:36:28.709Z,7.2
2018-10-11T03:36:58.214Z,7.4
2018-10-11T03:37:27.743Z,6.8
2018-10-11T03:37:57.330Z,7
2018-10-11T03:38:26.920Z,7.4
2018-10-11T03:38:56.400Z,6.2
2018-10-11T03:39:25.936Z,9.9
2018-10-11T03:39:55.448Z,6.7
2018-10-11T03:40:24.973Z,7.2
2018-10-11T03:40:54.471Z,6.2
2018-10-11T03:41:23.972Z,5.6
2018-10-11T03:41:53.504Z,5.9
2018-10-11T03:42:23.010Z,5.6
2018-10-11T03:42:53.512Z,7.4
2018-10-11T03:43:23.046Z,5.6
2018-10-11T03:43:52.623Z,6.6
2018-10-11T03:44:22.112Z,6.7
2018-10-11T03:44:51.601Z,6.7
2018-10-11T03:45:21.099Z,6.9
2018-10-11T03:45:51.587Z,7.4
2018-10-11T03:46:21.096Z,7.6
2018-10-11T03:46:52.825Z,7.9
2018-10-11T03:47:22.332Z,8.5
2018-10-11T03:47:51.815Z,6.6
2018-10-11T03:48:21.361Z,7.7
2018-10-11T03:48:50.862Z,7.3
2018-10-11T03:49:20.365Z,9.3
2018-10-11T03:49:49.860Z,7.5
2018-10-11T03:50:19.359Z,5.9
2018-10-11T03:50:48.869Z,5.9
2018-10-11T03:51:18.398Z,7.1
2018-10-11T03:51:47.903Z,5.9
2018-10-11T03:52:17.418Z,8.5
2018-10-11T03:52:46.931Z,7.2
2018-10-11T03:53:16.479Z,5.2
2018-10-11T03:53:45.993Z,7.9
2018-10-11T03:54:15.487Z,7.3
2018-10-11T03:54:45.052Z,9.1
2018-10-11T03:55:14.548Z,8.1
2018-10-11T03:55:44.069Z,5.7
2018-10-11T03:56:13.571Z,6.5
2018-10-11T03:56:44.071Z,6
2018-10-11T03:57:13.563Z,6.9
2018-10-11T03:57:43.053Z,7.3
2018-10-11T03:58:12.555Z,7.2
2018-10-11T03:58:42.103Z,6.7
2018-10-11T03:59:11.723Z,7.7
2018-10-11T03:59:41.222Z,9.1
2018-10-11T04:00:10.712Z,5.4
2018-10-11T04:00:40.236Z,9.6
2018-10-11T04:01:09.745Z,8.4
2018-10-11T04:01:39.243Z,7
2018-10-11T04:02:08.732Z,9.3
2018-10-11T04:02:38.237Z,7.9
2018-10-11T04:03:07.715Z,8
2018-10-11T04:03:37.283Z,8.4
2018-10-11T04:04:06.802Z,8.8
2018-10-11T04:04:36.305Z,8.3
2018-10-11T04:05:05.798Z,8.3
2018-10-11T04:05:35.346Z,10
2018-10-11T04:06:04.832Z,9.2
2018-10-11T04:06:34.346Z,10.5
2018-10-11T04:07:04.805Z,8.6
2018-10-11T04:07:34.427Z,7.8
2018-10-11T04:08:03.795Z,9.8
2018-10-11T04:08:33.295Z,9.3
2018-10-11T04:09:02.874Z,10
2018-10-11T04:09:32.367Z,9.9
2018-10-11T04:10:01.866Z,10.3
2018-10-11T04:10:31.344Z,9.2
2018-10-11T04:11:00.856Z,9.4
2018-10-11T04:11:30.357Z,8.9
2018-10-11T04:11:59.854Z,7.3
2018-10-11T04:12:29.382Z,8.1
2018-10-11T04:12:58.873Z,8.2
2018-10-11T04:13:28.385Z,8.3
2018-10-11T04:13:57.932Z,9.1
2018-10-11T04:14:27.431Z,10.2
2018-10-11T04:14:56.930Z,9.1
2018-10-11T04:15:26.480Z,8.7
2018-10-11T04:15:55.931Z,9.2
2018-10-11T04:16:25.586Z,8.4
2018-10-11T04:16:56.073Z,9.1
2018-10-11T04:17:25.579Z,9.9
2018-10-11T04:17:55.072Z,8.9
2018-10-11T04:18:24.598Z,8.2
2018-10-11T04:18:54.105Z,10.1
2018-10-11T04:19:23.660Z,7.7
2018-10-11T04:19:53.164Z,9.1
2018-10-11T04:20:22.659Z,9.5
2018-10-11T04:20:52.154Z,8.6
2018-10-11T04:21:21.658Z,11.6
2018-10-11T04:21:51.149Z,11.2
2018-10-11T04:22:20.695Z,10.9
2018-10-11T04:22:50.189Z,8.3
2018-10-11T04:23:19.737Z,8
2018-10-11T04:23:49.251Z,8
2018-10-11T04:24:18.801Z,8
2018-10-11T04:24:48.294Z,8
2018-10-11T04:25:17.813Z,8.6
2018-10-11T04:25:47.291Z,7.8
2018-10-11T04:26:16.799Z,8.4
2018-10-11T04:26:46.282Z,10.4
2018-10-11T04:27:15.786Z,8.3
2018-10-11T04:27:45.263Z,9.5
2018-10-11T04:28:14.756Z,8.6
2018-10-11T04:28:44.252Z,11.2
2018-10-11T04:29:13.787Z,8.1
2018-10-11T04:29:43.332Z,8.3
2018-10-11T04:30:12.911Z,10.9
2018-10-11T04:30:42.348Z,8.9
2018-10-11T04:31:11.871Z,9.9
2018-10-11T04:31:41.417Z,8.6
2018-10-11T04:32:10.969Z,9.8
2018-10-11T04:32:40.534Z,8.9
2018-10-11T04:33:09.979Z,9.5
2018-10-11T04:33:39.524Z,9.9
2018-10-11T04:34:09.151Z,8.2
2018-10-11T04:34:38.691Z,9.5
2018-10-11T04:35:08.186Z,8
2018-10-11T04:35:37.673Z,10.5
2018-10-11T04:36:07.244Z,10.5
2018-10-11T04:36:37.667Z,7.8
2018-10-11T04:37:07.177Z,10
2018-10-11T04:37:36.672Z,9.6
2018-10-11T04:38:06.202Z,8.4
2018-10-11T04:38:35.692Z,9.1
2018-10-11T04:39:07.191Z,8.2
2018-10-11T04:39:36.736Z,7.2
2018-10-11T04:40:06.232Z,7.6
2018-10-11T04:40:35.731Z,7
2018-10-11T04:41:05.224Z,7.6
2018-10-11T04:41:34.743Z,6.3
2018-10-11T04:42:04.246Z,6.8
2018-10-11T04:42:33.751Z,7.3
2018-10-11T04:43:03.419Z,7.1
2018-10-11T04:43:32.745Z,7.6
2018-10-11T04:44:02.263Z,6.9
2018-10-11T04:44:31.781Z,6.5
2018-10-11T04:45:01.334Z,6.9
2018-10-11T04:45:30.830Z,6.9
2018-10-11T04:46:00.321Z,6.7
2018-10-11T04:46:29.817Z,5.5
2018-10-11T04:46:59.303Z,5.7
2018-10-11T04:47:28.794Z,7.7
2018-10-11T04:47:58.296Z,8.8
2018-10-11T04:48:27.791Z,9.8
2018-10-11T04:48:57.279Z,7.2
2018-10-11T04:49:26.777Z,7.1
2018-10-11T04:49:56.325Z,8.7
2018-10-11T04:50:25.814Z,7.3
2018-10-11T04:50:55.310Z,6.4
2018-10-11T04:51:24.812Z,7.6
2018-10-11T04:51:54.334Z,6.4
2018-10-11T04:52:23.831Z,6.1
2018-10-11T04:52:53.325Z,5.5
2018-10-11T04:53:22.850Z,5.2
2018-10-11T04:53:52.310Z,7.5
2018-10-11T04:54:21.849Z,6.4
2018-10-11T04:54:51.344Z,6.4
2018-10-11T04:55:20.882Z,4.7
2018-10-11T04:55:50.388Z,6.4
2018-10-11T04:56:19.871Z,5.6
2018-10-11T04:56:49.362Z,6
2018-10-11T04:57:18.855Z,5.6
2018-10-11T04:57:48.348Z,8
2018-10-11T04:58:17.848Z,6
2018-10-11T04:58:47.350Z,4.6
2018-10-11T04:59:16.841Z,4.6
2018-10-11T04:59:46.474Z,9.6
2018-10-11T05:00:16.894Z,7.1
2018-10-11T05:00:46.401Z,5.4
2018-10-11T05:01:15.895Z,6.3
2018-10-11T05:01:45.389Z,6.7
2018-10-11T05:02:14.889Z,5.7
2018-10-11T05:02:44.381Z,6.8
2018-10-11T05:03:13.969Z,8
2018-10-11T05:03:43.469Z,8.4
2018-10-11T05:04:12.965Z,7
2018-10-11T05:04:42.456Z,6.1
2018-10-11T05:05:12.011Z,6.5
2018-10-11T05:05:41.578Z,7.9
2018-10-11T05:06:11.065Z,7.2
2018-10-11T05:06:40.562Z,6.2
2018-10-11T05:07:10.085Z,5.7
2018-10-11T05:07:39.583Z,6.2
2018-10-11T05:08:09.120Z,7.6
2018-10-11T05:08:38.625Z,6.2
2018-10-11T05:09:09.219Z,6.1
2018-10-11T05:09:38.717Z,7.3
2018-10-11T05:10:08.208Z,5.3
2018-10-11T05:10:37.808Z,5.7
2018-10-11T05:11:07.335Z,5.6
2018-10-11T05:11:36.846Z,5.7
2018-10-11T05:12:06.349Z,5.1
2018-10-11T05:12:35.851Z,6.6
2018-10-11T05:13:05.357Z,5.9
2018-10-11T05:13:34.874Z,8.1
2018-10-11T05:14:04.366Z,5.4
2018-10-11T05:14:33.860Z,4.7
2018-10-11T05:15:04.344Z,5.8
2018-10-11T05:15:34.473Z,6.6
2018-10-11T05:16:04.030Z,4.4
2018-10-11T05:16:33.570Z,5.6
2018-10-11T05:17:03.067Z,4.7
2018-10-11T05:17:32.713Z,5.7
2018-10-11T05:18:02.081Z,4.3
2018-10-11T05:18:31.580Z,6.6
2018-10-11T05:19:01.138Z,7.6
2018-10-11T05:19:30.616Z,5.7
2018-10-11T05:20:01.149Z,7.3
2018-10-11T05:20:30.717Z,6.6
2018-10-11T05:21:00.316Z,5.1
2018-10-11T05:21:29.985Z,3.8
2018-10-11T05:21:59.435Z,7.1
2018-10-11T05:22:28.931Z,5.5
2018-10-11T05:22:58.482Z,7.3
2018-10-11T05:23:28.966Z,6.4
2018-10-11T05:23:58.458Z,6.2
2018-10-11T05:24:27.987Z,6.9
2018-10-11T05:24:58.476Z,6.4
2018-10-11T05:25:27.983Z,6.2
2018-10-11T05:25:57.493Z,7.1
2018-10-11T05:26:27.042Z,6.7
2018-10-11T05:26:56.577Z,5.6
2018-10-11T05:27:26.083Z,7.7
2018-10-11T05:27:55.576Z,7.9
2018-10-11T05:28:25.072Z,7.7
2018-10-11T05:28:54.612Z,6.6
2018-10-11T05:29:24.101Z,6
2018-10-11T05:29:53.602Z,5.8
2018-10-11T05:30:23.118Z,6.6
2018-10-11T05:30:52.597Z,6.5
2018-10-11T05:31:22.210Z,5.2
2018-10-11T05:31:51.710Z,6.1
2018-10-11T05:32:21.336Z,5.7
2018-10-11T05:32:50.705Z,6.1
2018-10-11T05:33:20.219Z,5.6
2018-10-11T05:33:49.712Z,6.5
2018-10-11T05:34:19.208Z,6.3
2018-10-11T05:34:48.723Z,7
2018-10-11T05:35:18.229Z,5.4
2018-10-11T05:35:47.729Z,5.8
2018-10-11T05:36:17.268Z,6.4
2018-10-11T05:36:46.817Z,6.5
2018-10-11T05:37:16.323Z,5.6
2018-10-11T05:37:45.829Z,6.8
2018-10-11T05:38:15.454Z,7.4
2018-10-11T05:38:44.849Z,8.4
2018-10-11T05:39:14.361Z,7.5
2018-10-11T05:39:43.876Z,7.1
2018-10-11T05:40:13.403Z,8.5
2018-10-11T05:40:42.905Z,7.5
2018-10-11T05:41:12.420Z,7.1
2018-10-11T05:41:41.980Z,6.9
2018-10-11T05:42:11.471Z,9.6
2018-10-11T05:42:40.973Z,11.2
2018-10-11T05:43:10.476Z,9.7
2018-10-11T05:43:39.979Z,8.9
2018-10-11T05:44:09.473Z,10.2
2018-10-11T05:44:38.974Z,9.2
2018-10-11T05:45:08.465Z,12.9
2018-10-11T05:45:37.956Z,9.3
2018-10-11T05:46:07.446Z,9.2
2018-10-11T05:46:37.942Z,8.4
2018-10-11T05:47:07.485Z,8.7
2018-10-11T05:47:36.971Z,9.4
2018-10-11T05:48:06.506Z,10.5
2018-10-11T05:48:36.011Z,9.6
2018-10-11T05:49:06.494Z,9.4
2018-10-11T05:49:36.015Z,8.9
2018-10-11T05:50:05.543Z,8.6
2018-10-11T05:50:36.023Z,7.5
2018-10-11T05:51:05.522Z,6
2018-10-11T05:51:36.003Z,7.9
2018-10-11T05:52:05.604Z,6.7
2018-10-11T05:52:35.094Z,8.3
2018-10-11T05:53:04.596Z,11.9
2018-10-11T05:53:34.142Z,8.5
2018-10-11T05:54:03.766Z,8.7
2018-10-11T05:54:33.285Z,9.6
2018-10-11T05:55:02.848Z,9.9
2018-10-11T05:55:32.401Z,9.4
2018-10-11T05:56:01.896Z,10.9
2018-10-11T05:56:31.430Z,8.6
2018-10-11T05:57:00.970Z,8.8
2018-10-11T05:57:30.469Z,8.9
2018-10-11T05:58:00.012Z,9
2018-10-11T05:58:29.516Z,11.2
2018-10-11T05:58:59.059Z,8.9
2018-10-11T05:59:28.559Z,10.4
2018-10-11T05:59:58.042Z,12.5
2018-10-11T06:00:27.532Z,9.8
2018-10-11T06:00:57.024Z,10.7
2018-10-11T06:01:26.540Z,11.1
2018-10-11T06:01:56.025Z,10.1
2018-10-11T06:02:25.584Z,10.5
2018-10-11T06:02:55.073Z,10.4
2018-10-11T06:03:24.581Z,12
2018-10-11T06:03:54.090Z,10
2018-10-11T06:04:23.742Z,13.5
2018-10-11T06:04:53.059Z,10.4
2018-10-11T06:05:22.546Z,9
2018-10-11T06:05:52.065Z,11.3
2018-10-11T06:06:21.546Z,11.9
2018-10-11T06:06:51.046Z,9.7
2018-10-11T06:07:20.595Z,11.1
2018-10-11T06:07:50.105Z,12.3
2018-10-11T06:08:19.611Z,10.6
2018-10-11T06:08:49.124Z,10.6
2018-10-11T06:09:19.272Z,12.8
2018-10-11T06:09:48.763Z,9.8
2018-10-11T06:10:18.260Z,9.7
2018-10-11T06:10:47.768Z,11.4
2018-10-11T06:11:18.290Z,11.2
2018-10-11T06:11:47.801Z,11.8
2018-10-11T06:12:17.283Z,9.5
2018-10-11T06:12:46.901Z,8.8
2018-10-11T06:13:16.407Z,9.5
2018-10-11T06:13:45.900Z,12.1
2018-10-11T06:14:15.411Z,11.2
2018-10-11T06:14:44.932Z,10.7
2018-10-11T06:15:14.420Z,10.5
2018-10-11T06:15:43.923Z,10.2
2018-10-11T06:16:13.425Z,9.7
2018-10-11T06:16:42.955Z,13.3
2018-10-11T06:17:12.459Z,11.3
2018-10-11T06:17:42.032Z,10.4
2018-10-11T06:18:11.533Z,11.3
2018-10-11T06:18:41.049Z,10.6
2018-10-11T06:19:10.549Z,11.7
2018-10-11T06:19:40.066Z,12.7
2018-10-11T06:20:09.534Z,10.6
2018-10-11T06:20:39.054Z,12.4
2018-10-11T06:21:08.540Z,11.2
2018-10-11T06:21:38.028Z,10.3
2018-10-11T06:22:07.514Z,10
2018-10-11T06:22:37.018Z,8.6
2018-10-11T06:23:06.566Z,8.6
2018-10-11T06:23:36.055Z,8.8
2018-10-11T06:24:05.551Z,7.3
2018-10-11T06:24:35.083Z,10.7
2018-10-11T06:25:04.566Z,7.4
2018-10-11T06:25:34.070Z,8.3
2018-10-11T06:26:04.608Z,9.2
2018-10-11T06:26:34.113Z,7.8
2018-10-11T06:27:03.645Z,8.7
2018-10-11T06:27:33.133Z,8
2018-10-11T06:28:02.680Z,10.6
2018-10-11T06:28:32.220Z,12.6
2018-10-11T06:29:01.720Z,9
2018-10-11T06:29:31.220Z,8.1
2018-10-11T06:30:00.709Z,7.3
2018-10-11T06:30:30.206Z,7.5
2018-10-11T06:30:59.709Z,8.7
2018-10-11T06:31:29.200Z,7.9
2018-10-11T06:31:58.693Z,6.6
2018-10-11T06:32:28.182Z,10.1
2018-10-11T06:32:57.672Z,9.8
2018-10-11T06:33:27.226Z,9.5
2018-10-11T06:33:56.734Z,8
2018-10-11T06:34:26.220Z,7.9
2018-10-11T06:34:55.712Z,8.2
2018-10-11T06:35:25.203Z,6.4
2018-10-11T06:35:54.700Z,7.6
2018-10-11T06:36:24.244Z,8.2
2018-10-11T06:36:53.682Z,8.9
2018-10-11T06:37:23.168Z,7.7
2018-10-11T06:37:52.727Z,11.3
2018-10-11T06:38:22.281Z,9.4
2018-10-11T06:38:51.766Z,9.4
2018-10-11T06:39:21.258Z,8.5
2018-10-11T06:39:50.808Z,8.9
2018-10-11T06:40:20.308Z,9.5
2018-10-11T06:40:49.831Z,9.3
2018-10-11T06:41:19.323Z,8.2
2018-10-11T06:41:48.901Z,8.1
2018-10-11T06:42:18.379Z,6.6
2018-10-11T06:42:47.966Z,8.9
2018-10-11T06:43:17.759Z,7.5
2018-10-11T06:43:47.301Z,8.9
2018-10-11T06:44:16.870Z,8.9
2018-10-11T06:44:46.370Z,6.8
2018-10-11T06:45:15.854Z,9.8
2018-10-11T06:45:45.343Z,8.3
2018-10-11T06:46:14.829Z,8
2018-10-11T06:46:44.352Z,8
2018-10-11T06:47:13.879Z,9.4
2018-10-11T06:47:43.364Z,8.7
2018-10-11T06:48:13.859Z,9.9
2018-10-11T06:48:43.460Z,9.5
2018-10-11T06:49:12.910Z,8.3